Time;durP1;ratioP1;P1;durP2;ratioP2;P2;SDS_P1;SDS_P2;PMS_P1;PMS_P2;Temp;Humidity;BMP_temperature;BMP_pressure;BME280_temperature;BME280_humidity;BME280_pressure;Samples;Min_cycle;Max_cycle;Signal;HPM_P1;HPM_P2
2024/01/30 00:02:25;;;;;;;27.88;13.02;;;;;;;-0.52;100.00;95244.69;5089088;28;20055;-64
2024/01/30 00:04:52;;;;;;;30.95;14.60;;;;;;;-0.51;100.00;95238.16;5091001;28;20683;-64
2024/01/30 00:07:19;;;;;;;33.92;14.52;;;;;;;-0.59;100.00;95238.94;5076644;28;20048;-64
2024/01/30 00:09:48;;;;;;;32.72;14.70;;;;;;;-0.92;100.00;95234.69;5091048;28;20040;-65
2024/01/30 00:12:16;;;;;;;38.23;16.90;;;;;;;-0.94;100.00;95244.97;5089664;28;20066;-64
2024/01/30 00:14:45;;;;;;;73.03;29.48;;;;;;;-0.86;100.00;95238.81;5089001;28;20050;-64
2024/01/30 00:17:12;;;;;;;44.30;19.92;;;;;;;-0.82;100.00;95231.72;5089750;28;20051;-65
2024/01/30 00:19:39;;;;;;;30.75;14.05;;;;;;;-0.86;100.00;95238.81;5070621;28;20551;-65
2024/01/30 00:22:06;;;;;;;28.63;12.63;;;;;;;-0.81;100.00;95240.59;5071877;28;20053;-64
2024/01/30 00:24:33;;;;;;;29.20;14.07;;;;;;;-0.82;100.00;95236.31;5090718;28;20054;-64
2024/01/30 00:27:00;;;;;;;35.72;15.65;;;;;;;-0.74;100.00;95242.84;5087276;28;20052;-65
2024/01/30 00:29:30;;;;;;;45.33;18.15;;;;;;;-0.69;100.00;95242.69;5079409;28;20043;-65
2024/01/30 00:31:57;;;;;;;34.83;14.90;;;;;;;-0.68;100.00;95238.91;5088029;28;20040;-64
2024/01/30 00:34:23;;;;;;;30.48;14.02;;;;;;;-0.78;100.00;95237.28;5089939;28;20422;-66
2024/01/30 00:36:50;;;;;;;28.80;13.80;;;;;;;-0.81;100.00;95238.69;5089026;28;20044;-65
2024/01/30 00:39:19;;;;;;;29.33;13.52;;;;;;;-0.74;100.00;95240.16;5088515;28;20051;-65
2024/01/30 00:41:46;;;;;;;29.20;13.77;;;;;;;-0.77;100.00;95241.56;5090233;28;20040;-65
2024/01/30 00:44:13;;;;;;;30.23;13.48;;;;;;;-0.85;100.00;95235.00;5089643;28;20067;-65
2024/01/30 00:46:39;;;;;;;36.03;15.18;;;;;;;-0.85;100.00;95237.72;5089885;28;20096;-64
2024/01/30 00:49:06;;;;;;;32.87;14.53;;;;;;;-0.82;100.00;95237.09;5089438;28;20040;-64
2024/01/30 00:51:33;;;;;;;27.02;12.70;;;;;;;-0.80;100.00;95236.81;5079116;28;20041;-65
2024/01/30 00:54:00;;;;;;;28.50;13.15;;;;;;;-0.78;100.00;95239.19;5069232;28;20085;-65
2024/01/30 00:56:27;;;;;;;28.95;13.32;;;;;;;-0.76;100.00;95245.84;5080534;28;20050;-64
2024/01/30 00:58:54;;;;;;;25.55;13.05;;;;;;;-0.76;100.00;95236.97;5072137;28;20421;-65
2024/01/30 01:01:21;;;;;;;31.40;14.73;;;;;;;-0.73;100.00;95241.72;5069308;28;20101;-64
2024/01/30 01:03:48;;;;;;;27.77;13.82;;;;;;;-0.75;100.00;95238.56;5074267;28;20421;-64
2024/01/30 01:06:15;;;;;;;26.20;12.43;;;;;;;-0.75;100.00;95242.03;5089482;28;20066;-65
2024/01/30 01:08:42;;;;;;;24.80;12.35;;;;;;;-0.77;100.00;95233.47;5089965;28;20048;-65
2024/01/30 01:11:09;;;;;;;26.70;12.95;;;;;;;-0.79;100.00;95242.97;5084266;28;20040;-64
2024/01/30 01:13:36;;;;;;;29.17;13.43;;;;;;;-0.86;100.00;95246.91;5081382;28;20394;-64
2024/01/30 01:16:03;;;;;;;26.40;12.90;;;;;;;-0.84;100.00;95241.22;5075384;28;20508;-64
2024/01/30 01:18:30;;;;;;;28.70;13.00;;;;;;;-0.87;100.00;95242.63;5088596;28;20508;-64
2024/01/30 01:20:57;;;;;;;29.80;13.15;;;;;;;-0.82;100.00;95250.56;5075425;28;20063;-65
2024/01/30 01:23:24;;;;;;;25.80;12.05;;;;;;;-0.87;100.00;95253.41;5089446;28;20413;-66
2024/01/30 01:25:51;;;;;;;26.23;11.80;;;;;;;-0.86;100.00;95244.22;5089433;28;20036;-66
2024/01/30 01:28:18;;;;;;;24.48;11.70;;;;;;;-0.87;100.00;95244.53;5089255;28;20048;-65
2024/01/30 01:30:46;;;;;;;28.35;12.80;;;;;;;-0.86;100.00;95252.31;5083206;28;20048;-64
2024/01/30 01:33:14;;;;;;;33.03;14.27;;;;;;;-1.01;100.00;95241.91;5084661;28;20456;-64
2024/01/30 01:35:41;;;;;;;33.08;14.77;;;;;;;-1.09;100.00;95248.03;5089435;28;20051;-64
2024/01/30 01:38:08;;;;;;;29.33;13.07;;;;;;;-1.10;100.00;95239.19;5089063;28;20127;-64
2024/01/30 01:40:35;;;;;;;28.52;13.43;;;;;;;-1.26;100.00;95260.31;5089074;28;20075;-64
2024/01/30 01:43:04;;;;;;;31.80;13.73;;;;;;;-1.39;100.00;95245.00;5088683;28;20040;-65
2024/01/30 01:45:31;;;;;;;29.35;13.20;;;;;;;-1.29;100.00;95249.34;5089354;28;20050;-65
2024/01/30 01:47:58;;;;;;;28.73;13.68;;;;;;;-1.25;100.00;95242.25;5092426;28;20036;-65
2024/01/30 01:50:26;;;;;;;32.43;13.77;;;;;;;-1.18;100.00;95239.94;5093414;28;20048;-66
2024/01/30 01:52:54;;;;;;;28.10;13.45;;;;;;;-1.19;100.00;95237.53;5083605;28;20423;-65
2024/01/30 01:55:23;;;;;;;33.70;15.07;;;;;;;-1.13;100.00;95239.78;5085847;28;20554;-65
2024/01/30 01:57:52;;;;;;;32.47;14.13;;;;;;;-1.07;100.00;95233.16;5073370;28;20040;-65
2024/01/30 02:00:20;;;;;;;34.78;14.65;;;;;;;-1.17;100.00;95236.13;5085159;28;20074;-65
2024/01/30 02:02:47;;;;;;;52.67;17.60;;;;;;;-1.17;100.00;95238.81;5082966;28;20052;-66
2024/01/30 02:05:15;;;;;;;33.55;14.50;;;;;;;-1.23;100.00;95235.47;5092441;28;20039;-64
2024/01/30 02:07:43;;;;;;;36.42;15.65;;;;;;;-1.21;100.00;95235.97;5092988;28;20040;-65
2024/01/30 02:10:10;;;;;;;60.58;17.15;;;;;;;-1.23;100.00;95240.03;5092614;28;20467;-64
2024/01/30 02:12:37;;;;;;;108.60;24.73;;;;;;;-1.25;100.00;95234.97;5089396;28;20048;-64
2024/01/30 02:15:05;;;;;;;44.00;14.70;;;;;;;-1.19;100.00;95241.00;5082198;28;20044;-65
2024/01/30 02:17:31;;;;;;;39.90;13.40;;;;;;;-1.16;100.00;95240.41;5089794;28;20114;-64
2024/01/30 02:19:59;;;;;;;30.08;12.55;;;;;;;-1.13;100.00;95237.09;5072686;28;20052;-65
2024/01/30 02:22:26;;;;;;;27.02;12.05;;;;;;;-1.14;100.00;95234.72;5090269;28;20040;-65
2024/01/30 02:24:53;;;;;;;32.17;14.65;;;;;;;-1.16;100.00;95226.94;5092771;28;20044;-64
2024/01/30 02:27:20;;;;;;;30.63;13.57;;;;;;;-1.22;100.00;95233.56;5092142;28;20040;-64
2024/01/30 02:29:47;;;;;;;28.58;12.85;;;;;;;-1.24;100.00;95233.88;5097299;28;20121;-64
2024/01/30 02:32:13;;;;;;;28.60;13.43;;;;;;;-1.22;100.00;95231.66;5087561;28;20425;-64
2024/01/30 02:34:40;;;;;;;27.15;12.43;;;;;;;-1.17;100.00;95232.63;5092509;28;20036;-65
2024/01/30 02:37:07;;;;;;;31.45;13.52;;;;;;;-1.24;100.00;95227.69;5076811;28;20405;-64
2024/01/30 02:39:34;;;;;;;26.23;12.17;;;;;;;-1.39;100.00;95228.06;5076204;28;20047;-64
2024/01/30 02:42:01;;;;;;;30.35;13.60;;;;;;;-1.40;100.00;95232.66;5090621;28;20699;-64
2024/01/30 02:44:27;;;;;;;32.67;15.48;;;;;;;-1.32;100.00;95231.91;5080245;28;20435;-64
2024/01/30 02:46:55;;;;;;;28.10;12.98;;;;;;;-1.32;100.00;95225.75;5092406;28;20397;-64
2024/01/30 02:49:22;;;;;;;28.85;13.27;;;;;;;-1.29;100.00;95222.41;5091444;28;20444;-65
2024/01/30 02:51:49;;;;;;;28.00;13.20;;;;;;;-1.25;100.00;95224.22;5092396;28;20443;-64
2024/01/30 02:54:16;;;;;;;28.92;13.40;;;;;;;-1.23;100.00;95222.00;5091830;28;20048;-64
2024/01/30 02:56:43;;;;;;;25.35;11.23;;;;;;;-1.24;100.00;95225.78;5092338;28;20044;-64
2024/01/30 02:59:10;;;;;;;23.20;10.65;;;;;;;-1.30;100.00;95213.56;5091235;28;20414;-65
2024/01/30 03:01:44;;;;;;;25.60;11.77;;;;;;;-1.32;100.00;95223.06;5079711;28;20522;-63
2024/01/30 03:04:11;;;;;;;35.00;14.80;;;;;;;-1.46;100.00;95215.84;5071893;28;20414;-65
2024/01/30 03:06:38;;;;;;;38.03;16.10;;;;;;;-1.42;100.00;95218.72;5080964;28;20047;-65
2024/01/30 03:09:05;;;;;;;31.45;13.75;;;;;;;-1.33;100.00;95216.06;5089357;28;20055;-65
2024/01/30 03:11:32;;;;;;;27.85;12.90;;;;;;;-1.31;100.00;95211.16;5088260;28;20052;-65
2024/01/30 03:13:58;;;;;;;27.92;13.63;;;;;;;-1.43;100.00;95220.63;5087155;28;20515;-65
2024/01/30 03:16:25;;;;;;;28.47;12.50;;;;;;;-1.38;100.00;95210.81;5090488;28;20040;-65
2024/01/30 03:18:52;;;;;;;27.63;12.60;;;;;;;-1.35;100.00;95219.06;5089569;28;20059;-64
2024/01/30 03:21:19;;;;;;;26.70;13.50;;;;;;;-1.38;100.00;95211.59;5089811;28;20048;-64
2024/01/30 03:23:45;;;;;;;26.80;12.73;;;;;;;-1.38;100.00;95216.22;5089795;28;20086;-65
2024/01/30 03:26:13;;;;;;;30.98;14.40;;;;;;;-1.40;100.00;95213.81;5086165;28;20062;-64
2024/01/30 03:28:39;;;;;;;27.83;13.23;;;;;;;-1.39;100.00;95211.91;5089932;28;20048;-65
2024/01/30 03:31:06;;;;;;;25.75;12.35;;;;;;;-1.45;100.00;95217.44;5089039;28;20393;-66
2024/01/30 03:33:33;;;;;;;24.08;11.82;;;;;;;-1.49;100.00;95218.34;5088760;28;20120;-63
2024/01/30 03:36:04;;;;;;;26.33;12.23;;;;;;;-1.55;100.00;95211.47;5088602;28;20044;-63
2024/01/30 03:38:32;;;;;;;29.30;13.88;;;;;;;-1.51;100.00;95218.66;5088630;28;20137;-65
2024/01/30 03:40:59;;;;;;;27.33;13.47;;;;;;;-1.53;100.00;95210.09;5086184;28;20042;-65
2024/01/30 03:43:26;;;;;;;29.35;13.15;;;;;;;-1.57;100.00;95211.81;5086342;28;20391;-65
2024/01/30 03:45:53;;;;;;;26.25;12.63;;;;;;;-1.54;100.00;95205.81;5089104;28;20046;-65
2024/01/30 03:48:21;;;;;;;26.23;11.77;;;;;;;-1.62;100.00;95207.31;5089383;28;20048;-65
2024/01/30 03:50:47;;;;;;;22.65;11.25;;;;;;;-1.59;100.00;95211.28;5089404;28;20052;-65
2024/01/30 03:53:14;;;;;;;26.53;12.13;;;;;;;-1.57;100.00;95208.31;5087593;28;20048;-65
2024/01/30 03:55:41;;;;;;;24.73;11.40;;;;;;;-1.51;100.00;95209.75;5089382;28;20390;-65
2024/01/30 03:58:08;;;;;;;26.05;12.57;;;;;;;-1.67;100.00;95220.91;5089117;28;20413;-65
2024/01/30 04:00:35;;;;;;;33.85;15.20;;;;;;;-2.07;100.00;95220.75;5086687;28;20036;-64
2024/01/30 04:03:02;;;;;;;28.05;13.13;;;;;;;-2.07;100.00;95226.13;5086723;28;20036;-64
2024/01/30 04:05:29;;;;;;;28.23;12.93;;;;;;;-1.93;100.00;95219.91;5088176;28;20052;-65
2024/01/30 04:07:56;;;;;;;26.80;12.93;;;;;;;-1.83;100.00;95223.16;5088306;28;20048;-65
2024/01/30 04:10:24;;;;;;;26.67;12.20;;;;;;;-1.83;100.00;95217.00;5076576;28;20063;-65
2024/01/30 04:12:51;;;;;;;24.45;12.05;;;;;;;-1.78;100.00;95216.09;5089045;28;20047;-64
2024/01/30 04:15:18;;;;;;;27.73;12.55;;;;;;;-1.76;100.00;95213.88;5088610;28;20046;-64
2024/01/30 04:17:45;;;;;;;28.10;12.93;;;;;;;-1.73;100.00;95211.38;5088388;28;20044;-64
2024/01/30 04:20:17;;;;;;;27.73;12.27;;;;;;;-1.70;100.00;95212.66;5087280;28;20066;-65
2024/01/30 04:22:45;;;;;;;27.88;12.57;;;;;;;-1.63;100.00;95221.09;5088286;28;20050;-65
2024/01/30 04:25:13;;;;;;;31.33;13.75;;;;;;;-1.63;100.00;95224.59;5089127;28;20040;-64
2024/01/30 04:27:40;;;;;;;25.58;12.05;;;;;;;-1.58;100.00;95215.59;5087893;28;20040;-64
2024/01/30 04:30:07;;;;;;;26.40;12.80;;;;;;;-1.61;100.00;95214.31;5086274;28;20415;-65
2024/01/30 04:32:35;;;;;;;28.05;11.82;;;;;;;-1.61;100.00;95208.13;5088274;28;20520;-64
2024/01/30 04:35:02;;;;;;;36.97;16.75;;;;;;;-1.78;100.00;95214.19;5087818;28;20050;-65
2024/01/30 04:37:33;;;;;;;28.05;13.52;;;;;;;-1.75;100.00;95215.47;5088663;28;20677;-65
2024/01/30 04:40:00;;;;;;;26.77;13.20;;;;;;;-1.80;100.00;95213.69;5087934;28;20051;-65
2024/01/30 04:42:26;;;;;;;25.43;11.83;;;;;;;-1.77;100.00;95217.66;5088455;28;20048;-65
2024/01/30 04:44:53;;;;;;;24.90;12.13;;;;;;;-1.77;100.00;95223.84;5088665;28;20044;-64
2024/01/30 04:47:20;;;;;;;25.63;11.95;;;;;;;-1.90;100.00;95220.09;5084057;28;20393;-64
2024/01/30 04:49:47;;;;;;;25.98;12.85;;;;;;;-1.90;100.00;95222.78;5087556;28;20058;-65
2024/01/30 04:52:14;;;;;;;28.73;13.00;;;;;;;-1.86;100.00;95229.16;5087546;28;20097;-65
2024/01/30 04:54:41;;;;;;;24.77;11.63;;;;;;;-1.81;100.00;95225.56;5085728;28;20036;-65
2024/01/30 04:57:09;;;;;;;56.92;25.33;;;;;;;-1.85;100.00;95224.56;5087172;28;20077;-65
2024/01/30 04:59:36;;;;;;;33.67;15.70;;;;;;;-1.82;100.00;95222.06;5085081;28;20040;-67
2024/01/30 05:02:03;;;;;;;27.23;12.40;;;;;;;-1.80;100.00;95211.00;5085365;28;20055;-65
2024/01/30 05:04:30;;;;;;;25.02;11.60;;;;;;;-1.90;100.00;95222.00;5087886;28;20485;-63
2024/01/30 05:06:57;;;;;;;24.88;10.85;;;;;;;-1.88;100.00;95227.88;5082606;28;20040;-64
2024/01/30 05:09:23;;;;;;;24.38;12.60;;;;;;;-1.97;100.00;95235.06;5071895;28;20048;-64
2024/01/30 05:11:50;;;;;;;27.33;13.70;;;;;;;-1.98;100.00;95231.56;5086041;28;20058;-63
2024/01/30 05:14:17;;;;;;;28.40;12.45;;;;;;;-1.91;100.00;95236.53;5076990;28;20058;-63
2024/01/30 05:16:46;;;;;;;26.85;13.10;;;;;;;-2.01;100.00;95240.28;5087835;28;20051;-63
2024/01/30 05:19:14;;;;;;;26.27;12.85;;;;;;;-2.04;100.00;95232.78;5076626;28;20040;-63
2024/01/30 05:21:41;;;;;;;57.30;25.88;;;;;;;-1.98;100.00;95234.25;5080461;28;20044;-63
2024/01/30 05:24:10;;;;;;;121.43;47.80;;;;;;;-2.04;100.00;95230.09;5088753;28;20050;-63
2024/01/30 05:26:37;;;;;;;36.72;17.15;;;;;;;-2.07;100.00;95234.19;5089648;28;20352;-63
2024/01/30 05:29:04;;;;;;;53.72;25.23;;;;;;;-2.02;100.00;95234.06;5068353;28;20074;-63
2024/01/30 05:31:31;;;;;;;37.53;16.97;;;;;;;-2.01;100.00;95235.69;5081868;28;20352;-63
2024/01/30 05:33:58;;;;;;;37.88;18.50;;;;;;;-2.05;100.00;95229.31;5068509;28;20074;-63
2024/01/30 05:36:25;;;;;;;30.50;15.10;;;;;;;-2.26;100.00;95241.59;5069307;28;20032;-64
2024/01/30 05:38:51;;;;;;;30.10;13.60;;;;;;;-2.19;100.00;95243.88;5078658;28;20108;-63
2024/01/30 05:41:18;;;;;;;34.15;14.38;;;;;;;-2.16;100.00;95245.97;5088835;28;20036;-66
2024/01/30 05:43:45;;;;;;;40.17;16.73;;;;;;;-2.06;100.00;95245.75;5089400;28;20036;-63
2024/01/30 05:46:12;;;;;;;36.45;16.73;;;;;;;-1.98;100.00;95246.94;5087317;28;20443;-65
2024/01/30 05:48:39;;;;;;;30.85;14.02;;;;;;;-2.02;100.00;95249.41;5089128;28;20046;-64
2024/01/30 05:51:08;;;;;;;30.13;14.10;;;;;;;-1.97;100.00;95251.19;5087088;28;20036;-64
2024/01/30 05:53:35;;;;;;;90.32;38.67;;;;;;;-2.04;100.00;95243.56;5087411;28;20434;-63
2024/01/30 05:56:02;;;;;;;122.77;50.10;;;;;;;-2.05;100.00;95248.13;5084608;28;20051;-64
2024/01/30 05:58:30;;;;;;;72.20;30.13;;;;;;;-2.09;100.00;95247.16;5088977;28;20066;-65
2024/01/30 06:00:58;;;;;;;129.23;50.72;;;;;;;-2.12;100.00;95249.66;5072413;28;20507;-64
2024/01/30 06:03:25;;;;;;;48.97;20.73;;;;;;;-2.08;100.00;95247.94;5068116;28;20041;-64
2024/01/30 06:05:52;;;;;;;27.58;13.15;;;;;;;-2.06;100.00;95243.84;5072089;28;20040;-64
2024/01/30 06:08:19;;;;;;;89.32;34.45;;;;;;;-2.02;100.00;95247.53;5088506;28;20399;-65
2024/01/30 06:10:45;;;;;;;46.00;18.38;;;;;;;-1.97;100.00;95246.63;5089241;28;20051;-65
2024/01/30 06:13:12;;;;;;;51.05;19.52;;;;;;;-1.97;100.00;95248.50;5088755;28;20051;-64
2024/01/30 06:15:39;;;;;;;35.78;17.30;;;;;;;-1.99;100.00;95256.09;5088862;28;20398;-65
2024/01/30 06:18:06;;;;;;;39.45;17.67;;;;;;;-2.22;100.00;95256.03;5079362;28;20514;-65
2024/01/30 06:20:33;;;;;;;33.10;15.83;;;;;;;-1.97;100.00;95256.56;5068889;28;20051;-65
2024/01/30 06:23:00;;;;;;;32.40;14.90;;;;;;;-1.91;100.00;95256.19;5081998;28;20032;-65
2024/01/30 06:25:27;;;;;;;41.60;19.30;;;;;;;-1.89;100.00;95256.69;5089401;28;20038;-65
2024/01/30 06:27:54;;;;;;;36.55;17.05;;;;;;;-1.94;100.00;95259.47;5088573;28;20393;-65
2024/01/30 06:30:21;;;;;;;40.35;18.58;;;;;;;-1.90;100.00;95254.28;5088741;28;20086;-66
2024/01/30 06:32:48;;;;;;;36.40;15.90;;;;;;;-1.95;100.00;95262.44;5090558;28;20042;-65
2024/01/30 06:35:15;;;;;;;36.75;15.95;;;;;;;-2.22;100.00;95266.78;5083162;28;20388;-65
2024/01/30 06:37:41;;;;;;;36.72;16.08;;;;;;;-2.07;100.00;95263.78;5073056;28;20056;-65
2024/01/30 06:40:09;;;;;;;33.00;14.88;;;;;;;-2.00;100.00;95260.69;5083033;28;20476;-65
2024/01/30 06:42:35;;;;;;;39.65;18.13;;;;;;;-1.94;100.00;95261.38;5087751;28;20066;-65
2024/01/30 06:45:02;;;;;;;90.73;37.37;;;;;;;-1.89;100.00;95255.84;5092373;28;20417;-64
2024/01/30 06:47:30;;;;;;;49.03;21.70;;;;;;;-1.93;100.00;95255.69;5078628;28;20409;-65
2024/01/30 06:49:57;;;;;;;42.33;19.77;;;;;;;-1.99;100.00;95256.09;5092072;28;20063;-64
2024/01/30 06:52:24;;;;;;;38.42;17.83;;;;;;;-1.86;100.00;95258.75;5092075;28;20043;-64
2024/01/30 06:54:51;;;;;;;31.52;15.82;;;;;;;-1.82;100.00;95257.03;5092510;28;20380;-65
2024/01/30 06:57:18;;;;;;;43.07;16.87;;;;;;;-2.01;100.00;95257.19;5090670;28;20048;-65
2024/01/30 06:59:45;;;;;;;34.45;16.40;;;;;;;-1.84;100.00;95256.53;5092691;28;20044;-65
2024/01/30 07:02:11;;;;;;;35.25;16.35;;;;;;;-1.75;100.00;95264.72;5089949;28;20055;-65
2024/01/30 07:04:39;;;;;;;32.60;16.35;;;;;;;-1.79;100.00;95262.91;5071496;28;20045;-65
2024/01/30 07:07:13;;;;;;;35.88;16.98;;;;;;;-1.72;100.00;95263.31;5091967;28;20414;-66
2024/01/30 07:09:40;;;;;;;35.23;16.80;;;;;;;-1.63;100.00;95262.28;5076065;28;20041;-65
2024/01/30 07:12:07;;;;;;;38.00;18.85;;;;;;;-1.59;100.00;95258.97;5071561;28;20380;-65
2024/01/30 07:14:34;;;;;;;32.03;16.30;;;;;;;-1.46;100.00;95268.88;5076719;28;20040;-64
2024/01/30 07:17:01;;;;;;;38.60;18.17;;;;;;;-1.57;100.00;95267.53;5091687;28;20038;-65
2024/01/30 07:19:28;;;;;;;44.88;20.60;;;;;;;-1.48;100.00;95263.00;5072941;28;20083;-65
2024/01/30 07:21:55;;;;;;;46.93;20.73;;;;;;;-1.35;100.00;95267.53;5080851;28;20390;-66
2024/01/30 07:24:22;;;;;;;48.60;22.38;;;;;;;-1.34;100.00;95268.34;5088831;28;20589;-66
2024/01/30 07:26:48;;;;;;;62.78;25.23;;;;;;;-1.26;100.00;95262.22;5071936;28;20448;-65
2024/01/30 07:29:15;;;;;;;65.90;26.98;;;;;;;-1.07;100.00;95262.78;5086621;28;20051;-65
2024/01/30 07:31:42;;;;;;;56.65;24.15;;;;;;;-0.89;100.00;95258.28;5091880;28;20040;-65
2024/01/30 07:34:09;;;;;;;42.70;19.07;;;;;;;-0.82;100.00;95268.66;5091055;28;20471;-65
2024/01/30 07:36:36;;;;;;;32.75;14.52;;;;;;;-1.05;100.00;95266.00;5091812;28;20044;-66
2024/01/30 07:39:05;;;;;;;31.60;14.57;;;;;;;-0.76;100.00;95263.94;5091004;28;20044;-65
2024/01/30 07:41:32;;;;;;;36.08;16.35;;;;;;;-0.56;100.00;95271.47;5091525;28;20040;-65
2024/01/30 07:43:59;;;;;;;39.63;17.48;;;;;;;-0.39;100.00;95269.94;5089948;28;20383;-65
2024/01/30 07:46:26;;;;;;;36.73;16.40;;;;;;;-0.42;100.00;95261.38;5074846;28;20040;-65
2024/01/30 07:48:53;;;;;;;38.17;17.42;;;;;;;-0.28;100.00;95276.63;5081789;28;20055;-65
2024/01/30 07:51:21;;;;;;;35.85;17.63;;;;;;;-0.25;100.00;95276.78;5089434;28;20040;-65
2024/01/30 07:53:48;;;;;;;36.00;18.05;;;;;;;-0.02;100.00;95274.81;5091408;28;20048;-65
2024/01/30 07:56:15;;;;;;;40.60;17.55;;;;;;;-0.06;100.00;95270.34;5077360;28;20449;-65
2024/01/30 07:58:42;;;;;;;32.70;15.20;;;;;;;0.30;100.00;95264.69;5091403;28;20048;-65
2024/01/30 08:01:09;;;;;;;31.33;14.27;;;;;;;0.49;100.00;95266.28;5076645;28;20044;-66
2024/01/30 08:03:36;;;;;;;29.20;14.60;;;;;;;0.49;100.00;95266.28;5091469;28;20042;-65
2024/01/30 08:06:03;;;;;;;29.52;14.75;;;;;;;0.79;100.00;95268.00;5090422;28;20052;-65
2024/01/30 08:08:30;;;;;;;34.88;16.75;;;;;;;0.98;100.00;95267.66;5107034;28;20048;-65
2024/01/30 08:10:57;;;;;;;39.50;16.80;;;;;;;0.94;100.00;95263.22;5090249;28;20048;-65
2024/01/30 08:13:24;;;;;;;43.00;17.90;;;;;;;1.25;100.00;95264.88;5089905;28;20046;-65
2024/01/30 08:15:51;;;;;;;31.20;15.18;;;;;;;1.45;100.00;95266.09;5089867;28;20391;-65
2024/01/30 08:18:18;;;;;;;43.72;18.25;;;;;;;1.57;100.00;95263.50;5081587;28;20040;-65
2024/01/30 08:20:45;;;;;;;37.83;17.33;;;;;;;2.06;100.00;95260.41;5087094;28;20052;-65
2024/01/30 08:23:12;;;;;;;35.03;16.73;;;;;;;3.15;100.00;95269.41;5089868;28;20040;-66
2024/01/30 08:25:39;;;;;;;40.60;17.75;;;;;;;4.03;100.00;95269.22;5076973;28;20083;-66
2024/01/30 08:28:07;;;;;;;34.90;16.70;;;;;;;5.09;100.00;95261.78;5089000;28;20068;-66
2024/01/30 08:30:34;;;;;;;34.80;17.92;;;;;;;6.68;100.00;95259.03;5090528;28;20040;-66
2024/01/30 08:33:00;;;;;;;31.50;17.15;;;;;;;7.47;92.33;95257.88;5083769;28;20048;-66
2024/01/30 08:35:27;;;;;;;35.23;18.00;;;;;;;9.54;85.59;95256.53;5090366;28;20044;-66
2024/01/30 08:37:54;;;;;;;28.73;16.58;;;;;;;10.22;72.92;95261.84;5090546;28;20040;-66
2024/01/30 08:40:21;;;;;;;28.42;15.15;;;;;;;10.42;76.46;95259.66;5090043;28;20400;-66
2024/01/30 08:42:48;;;;;;;30.45;16.30;;;;;;;11.75;66.18;95255.53;5078608;28;20051;-66
2024/01/30 08:45:14;;;;;;;26.63;15.70;;;;;;;12.80;58.15;95254.38;5073466;28;20048;-67
2024/01/30 08:47:41;;;;;;;22.90;14.27;;;;;;;13.10;56.47;95255.81;5090483;28;20047;-66
2024/01/30 08:50:08;;;;;;;23.85;14.43;;;;;;;12.71;55.22;95259.47;5076260;28;20047;-66
2024/01/30 08:52:35;;;;;;;24.33;14.35;;;;;;;11.71;56.18;95260.22;5090586;28;20048;-66
2024/01/30 08:55:03;;;;;;;24.05;14.82;;;;;;;12.11;55.03;95261.09;5084883;28;20384;-66
2024/01/30 08:57:30;;;;;;;22.55;15.32;;;;;;;11.21;58.28;95266.38;5070208;28;20449;-66
2024/01/30 08:59:57;;;;;;;24.63;15.23;;;;;;;11.67;56.17;95263.00;5069570;28;20040;-65
2024/01/30 09:02:23;;;;;;;24.45;15.10;;;;;;;11.19;60.61;95260.47;5070210;28;20036;-66
2024/01/30 09:04:50;;;;;;;23.75;14.35;;;;;;;11.08;59.41;95265.13;5075084;28;20447;-66
2024/01/30 09:07:17;;;;;;;22.63;13.60;;;;;;;11.23;62.60;95263.22;5089821;28;20052;-65
2024/01/30 09:09:44;;;;;;;22.48;13.43;;;;;;;11.94;58.86;95265.41;5089522;28;20063;-66
2024/01/30 09:12:12;;;;;;;22.93;13.40;;;;;;;11.55;57.64;95264.13;5089705;28;20048;-66
2024/01/30 09:14:40;;;;;;;23.92;13.55;;;;;;;12.29;58.52;95259.13;5089478;28;20040;-66
2024/01/30 09:17:08;;;;;;;20.67;13.85;;;;;;;12.89;54.36;95262.19;5089457;28;20055;-66
2024/01/30 09:19:34;;;;;;;18.52;12.55;;;;;;;13.26;55.03;95261.69;5076846;28;20042;-66
2024/01/30 09:22:02;;;;;;;21.33;13.32;;;;;;;11.49;56.28;95260.19;5088055;28;20058;-66
2024/01/30 09:24:29;;;;;;;20.23;13.90;;;;;;;11.03;60.18;95268.25;5082648;28;20055;-65
2024/01/30 09:26:56;;;;;;;20.83;13.25;;;;;;;10.45;63.62;95264.41;5083965;28;20044;-66
2024/01/30 09:29:23;;;;;;;20.90;12.98;;;;;;;10.06;69.39;95259.34;5088991;28;20093;-65
2024/01/30 09:31:49;;;;;;;19.98;12.80;;;;;;;10.95;69.09;95264.69;5087805;28;20040;-65
2024/01/30 09:34:16;;;;;;;20.05;12.50;;;;;;;11.56;63.76;95256.66;5089240;28;20055;-65
2024/01/30 09:36:43;;;;;;;17.60;11.70;;;;;;;12.43;59.82;95255.59;5089753;28;20043;-65
2024/01/30 09:39:10;;;;;;;19.65;12.02;;;;;;;13.31;57.73;95264.06;5088409;28;20050;-66
2024/01/30 09:41:45;;;;;;;16.77;11.20;;;;;;;14.89;51.57;95256.63;5089694;28;20058;-65
2024/01/30 09:44:15;;;;;;;16.65;11.35;;;;;;;15.20;51.21;95259.47;5088683;28;20071;-66
2024/01/30 09:46:42;;;;;;;20.70;12.35;;;;;;;14.76;50.97;95262.69;5089519;28;20043;-65
2024/01/30 09:49:09;;;;;;;18.17;11.70;;;;;;;13.15;53.49;95261.72;5069090;28;20093;-65
2024/01/30 09:51:37;;;;;;;17.40;11.38;;;;;;;12.03;59.62;95268.56;5069527;28;20113;-65
2024/01/30 09:54:04;;;;;;;19.13;11.10;;;;;;;11.04;65.01;95265.13;5086297;28;20051;-64
2024/01/30 09:56:30;;;;;;;19.48;11.75;;;;;;;10.09;74.52;95262.13;5079076;28;20053;-65
2024/01/30 09:58:57;;;;;;;22.17;12.50;;;;;;;9.04;86.17;95272.41;5073252;28;20050;-65
2024/01/30 10:01:25;;;;;;;22.23;12.63;;;;;;;9.27;88.43;95266.81;5088097;28;20048;-65
2024/01/30 10:03:52;;;;;;;21.65;12.95;;;;;;;9.42;89.28;95271.28;5089080;28;20116;-65
2024/01/30 10:06:20;;;;;;;22.30;13.30;;;;;;;9.35;87.41;95265.72;5089135;28;20479;-65
2024/01/30 10:08:49;;;;;;;25.67;14.82;;;;;;;7.87;97.55;95276.53;5080969;28;20067;-65
2024/01/30 10:11:16;;;;;;;28.67;16.35;;;;;;;7.57;100.00;95273.66;5072476;28;20052;-65
2024/01/30 10:13:43;;;;;;;29.47;15.63;;;;;;;8.58;98.69;95271.41;5084582;28;20035;-65
2024/01/30 10:16:10;;;;;;;29.98;15.93;;;;;;;9.26;93.19;95271.50;5093033;28;20052;-65
2024/01/30 10:18:36;;;;;;;26.92;15.20;;;;;;;9.45;90.22;95269.75;5081474;28;20040;-65
2024/01/30 10:21:03;;;;;;;30.95;16.10;;;;;;;9.39;92.00;95261.84;5091728;28;20504;-65
2024/01/30 10:23:30;;;;;;;29.27;16.42;;;;;;;9.45;91.10;95262.31;5093334;28;20125;-65
2024/01/30 10:26:03;;;;;;;28.37;16.70;;;;;;;8.68;98.32;95266.47;5092894;28;20516;-65
2024/01/30 10:28:31;;;;;;;27.10;16.35;;;;;;;7.76;100.00;95259.16;5093293;28;20044;-65
2024/01/30 10:30:59;;;;;;;32.72;19.17;;;;;;;7.95;100.00;95253.63;5092356;28;20036;-65
2024/01/30 10:33:31;;;;;;;31.02;17.98;;;;;;;8.85;100.00;95267.84;5091146;28;20048;-65
2024/01/30 10:36:04;;;;;;;30.67;17.75;;;;;;;9.61;94.95;95256.59;5083776;28;20032;-66
2024/01/30 10:38:32;;;;;;;28.13;16.27;;;;;;;9.98;89.77;95256.56;5072748;28;20044;-65
2024/01/30 10:41:01;;;;;;;24.48;14.75;;;;;;;9.05;95.11;95257.53;5088651;28;20040;-65
2024/01/30 10:43:35;;;;;;;25.08;14.52;;;;;;;9.70;92.13;95261.75;5091600;28;20048;-65
2024/01/30 10:46:07;;;;;;;27.65;15.80;;;;;;;10.40;89.07;95251.78;5080259;28;20401;-66
2024/01/30 10:48:36;;;;;;;24.70;14.70;;;;;;;12.23;77.11;95246.94;5090777;28;20052;-65
2024/01/30 10:51:05;;;;;;;26.23;15.00;;;;;;;12.85;73.55;95245.69;5077807;28;20046;-65
2024/01/30 10:53:32;;;;;;;24.75;15.15;;;;;;;15.46;63.08;95233.88;5092586;28;20062;-65
2024/01/30 10:56:01;;;;;;;20.30;14.02;;;;;;;16.60;56.03;95236.16;5091947;28;20104;-65
2024/01/30 10:58:27;;;;;;;22.48;14.48;;;;;;;16.57;53.71;95232.22;5092385;28;20441;-66
2024/01/30 11:00:55;;;;;;;26.65;17.52;;;;;;;13.25;62.77;95235.31;5092608;28;20048;-64
2024/01/30 11:03:23;;;;;;;23.83;15.60;;;;;;;12.18;72.02;95231.63;5077867;28;20792;-65
2024/01/30 11:05:52;;;;;;;22.77;14.40;;;;;;;13.81;66.53;95227.16;5084492;28;20478;-65
2024/01/30 11:08:27;;;;;;;21.38;14.45;;;;;;;15.46;60.53;95211.72;5071929;28;20044;-65
2024/01/30 11:10:57;;;;;;;22.13;14.65;;;;;;;13.28;64.87;95215.22;5087653;28;20470;-65
2024/01/30 11:13:28;;;;;;;21.88;14.38;;;;;;;13.70;67.93;95218.16;5081759;28;20814;-65